createdAt,value
2023-03-04T00:00:15.230Z,1.21
2023-03-04T00:02:41.733Z,1.24
2023-03-04T00:05:13.005Z,1.20
2023-03-04T00:07:41.953Z,1.16
2023-03-04T00:10:09.224Z,1.12
2023-03-04T00:12:36.080Z,1.05
2023-03-04T00:15:02.851Z,1.04
2023-03-04T00:17:31.969Z,1.04
2023-03-04T00:19:58.573Z,1.05
2023-03-04T00:22:24.987Z,1.05
2023-03-04T00:24:52.331Z,0.98
2023-03-04T00:27:19.044Z,0.95
2023-03-04T00:29:45.488Z,0.90
2023-03-04T00:32:14.302Z,0.81
2023-03-04T00:34:40.799Z,0.89
2023-03-04T00:37:07.469Z,0.81
2023-03-04T00:39:33.977Z,0.79
2023-03-04T00:42:00.675Z,0.77
2023-03-04T00:44:27.669Z,0.75
2023-03-04T00:46:54.309Z,0.74
2023-03-04T00:49:20.752Z,0.68
2023-03-04T00:51:47.293Z,0.69
2023-03-04T00:54:14.147Z,0.65
2023-03-04T00:56:40.643Z,0.62
2023-03-04T00:59:07.093Z,0.64
2023-03-04T01:02:11.488Z,0.62
2023-03-04T01:05:15.498Z,0.53
2023-03-04T01:08:19.752Z,0.58
2023-03-04T01:11:24.020Z,0.56
2023-03-04T01:14:28.066Z,0.60
2023-03-04T01:17:32.131Z,0.52
2023-03-04T01:20:36.119Z,0.49
2023-03-04T01:23:39.802Z,0.43
2023-03-04T01:26:43.631Z,0.32
2023-03-04T01:29:47.548Z,0.28
2023-03-04T01:32:51.581Z,0.22
2023-03-04T01:35:20.395Z,0.22
2023-03-04T01:37:46.794Z,0.20
2023-03-04T01:40:14.148Z,0.22
2023-03-04T01:42:41.011Z,0.14
2023-03-04T01:45:10.791Z,0.15
2023-03-04T01:47:37.317Z,0.13
2023-03-04T01:50:11.245Z,0.07
2023-03-04T01:52:40.806Z,0.05
2023-03-04T01:55:16.195Z,-0.03
2023-03-04T01:57:42.664Z,-0.03
2023-03-04T02:00:37.661Z,-0.02
2023-03-04T02:03:15.398Z,-0.06
2023-03-04T02:05:47.834Z,-0.14
2023-03-04T02:08:17.408Z,-0.15
2023-03-04T02:10:44.129Z,-0.17
2023-03-04T02:13:14.037Z,-0.20
2023-03-04T02:15:42.328Z,-0.20
2023-03-04T02:18:15.049Z,-0.30
2023-03-04T02:20:46.036Z,-0.27
2023-03-04T02:23:24.396Z,-0.25
2023-03-04T02:26:15.010Z,-0.31
2023-03-04T02:28:42.450Z,-0.37
2023-03-04T02:31:24.092Z,-0.36
2023-03-04T02:33:52.143Z,-0.40
2023-03-04T02:36:19.936Z,-0.37
2023-03-04T02:38:46.489Z,-0.44
2023-03-04T02:41:18.769Z,-0.45
2023-03-04T02:43:47.397Z,-0.51
2023-03-04T02:46:13.873Z,-0.63
2023-03-04T02:48:40.322Z,-0.61
2023-03-04T02:51:06.765Z,-0.58
2023-03-04T02:53:33.223Z,-0.68
2023-03-04T02:55:59.757Z,-0.69
2023-03-04T02:58:26.238Z,-0.77
2023-03-04T03:00:52.675Z,-0.66
2023-03-04T03:03:19.213Z,-0.79
2023-03-04T03:05:45.985Z,-0.93
2023-03-04T03:08:12.393Z,-0.94
2023-03-04T03:10:41.474Z,-0.81
2023-03-04T03:13:10.426Z,-0.89
2023-03-04T03:15:42.215Z,-0.94
2023-03-04T03:18:12.311Z,-0.94
2023-03-04T03:20:38.941Z,-1.00
2023-03-04T03:23:05.733Z,-1.08
2023-03-04T03:25:32.408Z,-1.16
2023-03-04T03:27:59.077Z,-1.24
2023-03-04T03:30:25.508Z,-1.24
2023-03-04T03:32:52.082Z,-1.32
2023-03-04T03:35:18.706Z,-1.36
2023-03-04T03:37:45.171Z,-1.28
2023-03-04T03:40:12.292Z,-1.16
2023-03-04T03:42:41.157Z,-0.99
2023-03-04T03:45:10.291Z,-1.02
2023-03-04T03:47:36.724Z,-1.01
2023-03-04T03:50:04.063Z,-0.93
2023-03-04T03:52:30.494Z,-1.04
2023-03-04T03:55:02.067Z,-1.03
2023-03-04T03:57:29.606Z,-0.87
2023-03-04T03:59:56.701Z,-0.88
2023-03-04T04:02:23.411Z,-0.89
2023-03-04T04:04:49.998Z,-0.91
2023-03-04T04:07:18.733Z,-0.90
2023-03-04T04:09:45.384Z,-0.96
2023-03-04T04:12:14.649Z,-1.04
2023-03-04T04:14:43.793Z,-1.08
2023-03-04T04:17:14.058Z,-1.02
2023-03-04T04:19:41.487Z,-1.05
2023-03-04T04:22:13.546Z,-1.00
2023-03-04T04:24:40.416Z,-1.07
2023-03-04T04:27:06.969Z,-1.03
2023-03-04T04:29:33.497Z,-0.94
2023-03-04T04:32:02.583Z,-1.06
2023-03-04T04:34:29.018Z,-0.98
2023-03-04T04:36:55.738Z,-1.08
2023-03-04T04:39:22.406Z,-1.13
2023-03-04T04:41:48.959Z,-1.23
2023-03-04T04:44:15.893Z,-1.16
2023-03-04T04:46:43.089Z,-1.20
2023-03-04T04:49:09.612Z,-1.30
2023-03-04T04:51:37.311Z,-1.39
2023-03-04T04:54:04.820Z,-1.52
2023-03-04T04:56:31.939Z,-1.60
2023-03-04T04:59:02.812Z,-1.68
2023-03-04T05:01:29.343Z,-1.77
2023-03-04T05:03:55.966Z,-1.86
2023-03-04T05:06:24.114Z,-1.91
2023-03-04T05:08:51.375Z,-2.00
2023-03-04T05:11:19.447Z,-2.07
2023-03-04T05:13:49.033Z,-2.12
2023-03-04T05:16:17.299Z,-2.16
2023-03-04T05:18:44.082Z,-2.13
2023-03-04T05:21:10.752Z,-2.08
2023-03-04T05:23:42.235Z,-2.00
2023-03-04T05:26:11.244Z,-1.91
2023-03-04T05:28:37.651Z,-1.86
2023-03-04T05:31:04.367Z,-1.75
2023-03-04T05:33:30.919Z,-1.66
2023-03-04T05:35:57.573Z,-1.68
2023-03-04T05:38:25.792Z,-1.55
2023-03-04T05:40:58.756Z,-1.55
2023-03-04T05:43:26.572Z,-1.56
2023-03-04T05:45:52.981Z,-1.44
2023-03-04T05:48:20.017Z,-1.42
2023-03-04T05:50:46.665Z,-1.41
2023-03-04T05:53:13.847Z,-1.32
2023-03-04T05:55:40.363Z,-1.30
2023-03-04T05:58:06.882Z,-1.26
2023-03-04T06:00:35.800Z,-1.15
2023-03-04T06:03:02.204Z,-1.08
2023-03-04T06:05:28.807Z,-1.09
2023-03-04T06:07:55.215Z,-1.03
2023-03-04T06:10:23.925Z,-1.01
2023-03-04T06:12:50.567Z,-0.98
2023-03-04T06:15:17.348Z,-0.92
2023-03-04T06:17:46.281Z,-0.85
2023-03-04T06:20:13.199Z,-0.80
2023-03-04T06:22:39.815Z,-0.76
2023-03-04T06:25:09.174Z,-0.76
2023-03-04T06:27:35.818Z,-0.66
2023-03-04T06:30:02.751Z,-0.60
2023-03-04T06:32:29.258Z,-0.55
2023-03-04T06:34:55.830Z,-0.50
2023-03-04T06:37:24.519Z,-0.43
2023-03-04T06:39:50.973Z,-0.43
2023-03-04T06:42:17.911Z,-0.35
2023-03-04T06:44:44.316Z,-0.35
2023-03-04T06:47:13.158Z,-0.28
2023-03-04T06:49:39.771Z,-0.24
2023-03-04T06:52:06.163Z,-0.18
2023-03-04T06:54:34.916Z,-0.14
2023-03-04T06:57:02.271Z,-0.09
2023-03-04T06:59:28.683Z,-0.05
2023-03-04T07:01:55.372Z,-0.03
2023-03-04T07:04:23.589Z,0.06
2023-03-04T07:06:50.768Z,0.08
2023-03-04T07:09:17.854Z,0.09
2023-03-04T07:11:46.516Z,0.11
2023-03-04T07:14:13.061Z,0.18
2023-03-04T07:16:39.516Z,0.23
2023-03-04T07:19:06.032Z,0.25
2023-03-04T07:21:32.566Z,0.28
2023-03-04T07:23:59.003Z,0.33
2023-03-04T07:26:25.621Z,0.39
2023-03-04T07:28:54.398Z,0.35
2023-03-04T07:31:25.544Z,0.42
2023-03-04T07:33:52.259Z,0.51
2023-03-04T07:36:21.215Z,0.52
2023-03-04T07:38:49.294Z,0.56
2023-03-04T07:41:17.169Z,0.64
2023-03-04T07:43:44.295Z,0.67
2023-03-04T07:46:11.040Z,0.66
2023-03-04T07:48:38.315Z,0.69
2023-03-04T07:51:07.133Z,0.73
2023-03-04T07:53:34.739Z,0.82
2023-03-04T07:56:02.690Z,0.82
2023-03-04T07:58:29.262Z,0.79
2023-03-04T08:00:55.814Z,0.89
2023-03-04T08:03:22.305Z,0.95
2023-03-04T08:05:48.730Z,1.04
2023-03-04T08:08:17.306Z,1.04
2023-03-04T08:10:44.942Z,1.19
2023-03-04T08:13:11.345Z,1.20
2023-03-04T08:15:42.440Z,1.23
2023-03-04T08:18:09.077Z,1.27
2023-03-04T08:20:35.881Z,1.27
2023-03-04T08:23:04.836Z,1.21
2023-03-04T08:25:31.412Z,1.30
2023-03-04T08:27:58.532Z,1.34
2023-03-04T08:30:24.908Z,1.34
2023-03-04T08:32:51.428Z,1.34
2023-03-04T08:35:18.065Z,1.35
2023-03-04T08:37:45.981Z,1.48
2023-03-04T08:40:13.677Z,1.55
2023-03-04T08:42:41.002Z,1.59
2023-03-04T08:45:09.194Z,1.67
2023-03-04T08:47:35.777Z,1.66
2023-03-04T08:50:02.316Z,1.68
2023-03-04T08:52:30.465Z,1.59
2023-03-04T08:54:59.845Z,1.58
2023-03-04T08:57:26.256Z,1.72
2023-03-04T08:59:52.750Z,1.86
2023-03-04T09:02:19.305Z,1.81
2023-03-04T09:04:45.809Z,1.86
2023-03-04T09:07:14.120Z,1.71
2023-03-04T09:09:40.993Z,1.94
2023-03-04T09:12:07.823Z,2.05
2023-03-04T09:14:35.794Z,2.09
2023-03-04T09:17:03.993Z,2.20
2023-03-04T09:19:30.517Z,2.11
2023-03-04T09:21:57.764Z,2.08
2023-03-04T09:24:24.218Z,2.17
2023-03-04T09:26:51.856Z,2.29
2023-03-04T09:29:18.324Z,2.36
2023-03-04T09:31:44.942Z,2.41
2023-03-04T09:34:11.441Z,2.43
2023-03-04T09:36:37.809Z,2.32
2023-03-04T09:39:04.551Z,2.36
2023-03-04T09:41:58.771Z,2.59
2023-03-04T09:44:38.500Z,2.65
2023-03-04T09:47:14.828Z,2.60
2023-03-04T09:49:47.777Z,2.73
2023-03-04T09:53:10.234Z,2.70
2023-03-04T09:55:45.276Z,2.78
2023-03-04T09:58:33.125Z,2.80
2023-03-04T10:01:26.772Z,2.81
2023-03-04T10:04:29.208Z,2.98
2023-03-04T10:06:56.694Z,2.86
2023-03-04T10:09:30.265Z,3.13
2023-03-04T10:12:05.314Z,3.14
2023-03-04T10:14:40.045Z,3.14
2023-03-04T10:17:19.686Z,3.29
2023-03-04T10:19:58.767Z,3.15
2023-03-04T10:22:37.501Z,3.25
2023-03-04T10:25:31.353Z,3.37
2023-03-04T10:28:04.465Z,3.49
2023-03-04T10:30:49.538Z,3.48
2023-03-04T10:33:27.865Z,3.50
2023-03-04T10:36:18.201Z,3.65
2023-03-04T10:38:59.932Z,3.76
2023-03-04T10:41:38.252Z,3.75
2023-03-04T10:44:14.582Z,3.94
2023-03-04T10:47:14.764Z,3.65
2023-03-04T10:50:15.574Z,3.68
2023-03-04T10:52:51.345Z,3.95
2023-03-04T10:55:42.279Z,3.98
2023-03-04T10:58:19.221Z,4.11
2023-03-04T11:00:59.364Z,4.17
2023-03-04T11:03:29.073Z,4.02
2023-03-04T11:06:23.217Z,4.03
2023-03-04T11:08:58.699Z,3.96
2023-03-04T11:11:35.237Z,4.01
2023-03-04T11:14:12.323Z,3.95
2023-03-04T11:16:38.982Z,4.15
2023-03-04T11:19:16.696Z,4.39
2023-03-04T11:21:43.822Z,4.46
2023-03-04T11:24:28.170Z,4.29
2023-03-04T11:27:09.768Z,4.48
2023-03-04T11:29:56.779Z,4.67
2023-03-04T11:32:32.014Z,4.74
2023-03-04T11:35:06.807Z,4.85
2023-03-04T11:37:44.029Z,4.72
2023-03-04T11:40:45.619Z,4.77
2023-03-04T11:43:20.391Z,4.95
2023-03-04T11:46:26.353Z,5.13
2023-03-04T11:49:05.728Z,5.02
2023-03-04T11:51:58.483Z,5.16
2023-03-04T11:54:51.588Z,4.86
2023-03-04T11:58:02.593Z,5.00
2023-03-04T12:00:44.131Z,5.05
2023-03-04T12:03:51.958Z,4.90
2023-03-04T12:06:44.835Z,4.87
2023-03-04T12:09:37.475Z,5.14
2023-03-04T12:12:12.132Z,5.13
2023-03-04T12:14:54.620Z,4.98
2023-03-04T12:17:53.062Z,5.30
2023-03-04T12:20:55.902Z,5.32
2023-03-04T12:23:28.908Z,5.21
2023-03-04T12:26:30.607Z,5.31
2023-03-04T12:29:24.556Z,5.22
2023-03-04T12:32:04.300Z,5.40
2023-03-04T12:34:54.748Z,5.31
2023-03-04T12:37:45.251Z,5.29
2023-03-04T12:40:28.322Z,5.40
2023-03-04T12:43:13.976Z,5.48
2023-03-04T12:46:02.226Z,5.43
2023-03-04T12:48:43.144Z,5.31
2023-03-04T12:51:31.242Z,5.23
2023-03-04T12:54:19.735Z,5.39
2023-03-04T12:57:01.629Z,5.40
2023-03-04T12:59:42.494Z,5.51
2023-03-04T13:02:46.700Z,5.40
2023-03-04T13:05:38.172Z,5.43
2023-03-04T13:08:21.148Z,5.45
2023-03-04T13:10:48.162Z,5.30
2023-03-04T13:13:42.488Z,5.31
2023-03-04T13:16:33.473Z,5.15
2023-03-04T13:19:05.113Z,5.14
2023-03-04T13:21:32.872Z,5.18
2023-03-04T13:27:52.588Z,5.19
2023-03-04T13:30:31.278Z,5.04
2023-03-04T13:33:10.971Z,5.08
2023-03-04T13:35:49.949Z,5.08
2023-03-04T13:38:36.353Z,5.11
2023-03-04T13:41:40.548Z,5.24
2023-03-04T13:44:53.041Z,5.25
2023-03-04T13:47:22.923Z,5.27
2023-03-04T13:50:24.466Z,5.21
2023-03-04T13:52:51.967Z,5.16
2023-03-04T13:55:35.321Z,5.07
2023-03-04T13:58:38.266Z,5.10
2023-03-04T14:01:05.263Z,5.05
2023-03-04T14:03:44.986Z,5.09
2023-03-04T14:06:18.021Z,5.01
2023-03-04T14:08:46.865Z,4.95
2023-03-04T14:11:19.334Z,5.02
2023-03-04T14:13:59.129Z,4.98
2023-03-04T14:16:31.984Z,4.92
2023-03-04T14:19:14.938Z,4.91
2023-03-04T14:21:47.923Z,4.97
2023-03-04T14:24:22.792Z,5.00
2023-03-04T14:27:10.445Z,5.00
2023-03-04T14:29:37.002Z,4.99
2023-03-04T14:32:06.069Z,4.99
2023-03-04T14:34:42.196Z,5.04
2023-03-04T14:37:26.957Z,4.99
2023-03-04T14:39:58.393Z,4.96
2023-03-04T14:42:32.110Z,4.90
2023-03-04T14:45:01.130Z,4.95
2023-03-04T14:47:38.006Z,4.95
2023-03-04T14:50:18.351Z,4.90
2023-03-04T14:52:58.294Z,4.95
2023-03-04T14:55:27.009Z,4.93
2023-03-04T14:58:06.329Z,4.90
2023-03-04T15:00:47.182Z,4.94
2023-03-04T15:03:22.118Z,4.99
2023-03-04T15:05:49.631Z,5.05
2023-03-04T15:08:23.851Z,5.05
2023-03-04T15:11:05.478Z,5.11
2023-03-04T15:13:44.333Z,5.08
2023-03-04T15:16:13.336Z,5.01
2023-03-04T15:18:55.522Z,5.06
2023-03-04T15:21:24.765Z,5.07
2023-03-04T15:23:59.039Z,5.06
2023-03-04T15:26:28.372Z,5.12
2023-03-04T15:28:54.807Z,5.21
2023-03-04T15:31:28.167Z,5.22
2023-03-04T15:33:54.787Z,5.26
2023-03-04T15:36:23.275Z,5.26
2023-03-04T15:38:52.586Z,5.23
2023-03-04T15:41:24.441Z,5.28
2023-03-04T15:43:52.420Z,5.25
2023-03-04T15:46:19.181Z,5.20
2023-03-04T15:48:50.039Z,5.23
2023-03-04T15:51:22.210Z,5.20
2023-03-04T15:53:52.435Z,5.17
2023-03-04T15:56:25.130Z,5.17
2023-03-04T15:58:57.272Z,5.18
2023-03-04T16:01:24.494Z,5.14
2023-03-04T16:03:53.626Z,5.12
2023-03-04T16:06:24.383Z,5.10
2023-03-04T16:08:53.543Z,5.05
2023-03-04T16:11:28.877Z,5.02
2023-03-04T16:13:57.938Z,5.01
2023-03-04T16:16:27.942Z,4.96
2023-03-04T16:18:54.675Z,4.95
2023-03-04T16:21:27.068Z,4.93
2023-03-04T16:23:55.831Z,4.91
2023-03-04T16:26:35.289Z,4.86
2023-03-04T16:29:10.661Z,4.87
2023-03-04T16:31:41.588Z,4.81
2023-03-04T16:34:08.137Z,4.79
2023-03-04T16:36:37.064Z,4.77
2023-03-04T16:39:09.531Z,4.74
2023-03-04T16:41:37.000Z,4.72
2023-03-04T16:44:03.752Z,4.69
2023-03-04T16:46:30.381Z,4.66
2023-03-04T16:48:57.017Z,4.65
2023-03-04T16:51:30.804Z,4.64
2023-03-04T16:54:01.570Z,4.61
2023-03-04T16:56:30.365Z,4.56
2023-03-04T16:59:00.649Z,4.57
2023-03-04T17:01:36.610Z,4.54
2023-03-04T17:04:06.575Z,4.50
2023-03-04T17:06:37.476Z,4.48
2023-03-04T17:09:07.883Z,4.46
2023-03-04T17:11:35.879Z,4.45
2023-03-04T17:14:02.725Z,4.41
2023-03-04T17:16:30.537Z,4.41
2023-03-04T17:18:57.479Z,4.39
2023-03-04T17:21:26.708Z,4.35
2023-03-04T17:23:56.520Z,4.34
2023-03-04T17:26:29.273Z,4.33
2023-03-04T17:29:02.129Z,4.30
2023-03-04T17:31:33.164Z,4.30
2023-03-04T17:34:03.082Z,4.26
2023-03-04T17:36:31.176Z,4.26
2023-03-04T17:38:57.783Z,4.24
2023-03-04T17:41:24.930Z,4.22
2023-03-04T17:43:54.494Z,4.20
2023-03-04T17:46:24.182Z,4.18
2023-03-04T17:48:56.141Z,4.16
2023-03-04T17:51:37.453Z,4.15
2023-03-04T17:54:08.662Z,4.14
2023-03-04T17:56:38.042Z,4.13
2023-03-04T17:59:10.050Z,4.14
2023-03-04T18:01:39.589Z,4.15
2023-03-04T18:04:09.046Z,4.13
2023-03-04T18:06:35.496Z,4.14
2023-03-04T18:09:02.034Z,4.12
2023-03-04T18:11:30.567Z,4.15
2023-03-04T18:13:57.423Z,4.12
2023-03-04T18:16:50.986Z,4.13
2023-03-04T18:19:20.627Z,4.15
2023-03-04T18:21:52.668Z,4.14
2023-03-04T18:24:19.221Z,4.13
2023-03-04T18:26:45.948Z,4.14
2023-03-04T18:29:12.514Z,4.14
2023-03-04T18:31:39.158Z,4.14
2023-03-04T18:34:07.981Z,4.13
2023-03-04T18:36:34.464Z,4.10
2023-03-04T18:39:05.524Z,4.13
2023-03-04T18:41:34.354Z,4.14
2023-03-04T18:44:13.050Z,4.13
2023-03-04T18:46:48.179Z,4.15
2023-03-04T18:49:17.758Z,4.10
2023-03-04T18:51:44.513Z,4.04
2023-03-04T18:54:20.402Z,4.02
2023-03-04T18:56:59.643Z,4.00
2023-03-04T18:59:44.104Z,4.01
2023-03-04T19:02:20.336Z,3.99
2023-03-04T19:04:49.278Z,3.96
2023-03-04T19:07:15.754Z,3.93
2023-03-04T19:09:42.426Z,3.92
2023-03-04T19:12:08.975Z,3.89
2023-03-04T19:14:35.461Z,3.88
2023-03-04T19:17:04.350Z,3.89
2023-03-04T19:19:31.305Z,3.90
2023-03-04T19:21:58.348Z,3.85
2023-03-04T19:24:25.378Z,3.84
2023-03-04T19:26:51.768Z,3.82
2023-03-04T19:29:19.708Z,3.86
2023-03-04T19:31:51.470Z,3.86
2023-03-04T19:34:21.032Z,3.84
2023-03-04T19:36:47.554Z,3.86
2023-03-04T19:39:15.615Z,3.87
2023-03-04T19:41:45.524Z,3.87
2023-03-04T19:44:15.565Z,3.87
2023-03-04T19:46:48.934Z,3.87
2023-03-04T19:49:31.310Z,3.89
2023-03-04T19:52:03.587Z,3.89
2023-03-04T19:54:33.620Z,3.89
2023-03-04T19:57:00.259Z,3.89
2023-03-04T19:59:26.988Z,3.91
2023-03-04T20:01:56.577Z,3.88
2023-03-04T20:04:26.112Z,3.89
2023-03-04T20:06:52.703Z,3.93
2023-03-04T20:09:19.600Z,3.92
2023-03-04T20:11:59.014Z,3.94
2023-03-04T20:14:28.892Z,3.93
2023-03-04T20:17:00.736Z,3.89
2023-03-04T20:19:27.522Z,3.91
2023-03-04T20:21:58.542Z,3.92
2023-03-04T20:24:26.164Z,3.95
2023-03-04T20:27:06.215Z,3.93
2023-03-04T20:29:34.861Z,3.90
2023-03-04T20:32:13.514Z,3.90
2023-03-04T20:34:43.669Z,3.90
2023-03-04T20:37:10.560Z,3.89
2023-03-04T20:39:36.968Z,3.88
2023-03-04T20:42:03.803Z,3.95
2023-03-04T20:44:30.285Z,3.92
2023-03-04T20:46:59.430Z,3.91
2023-03-04T20:49:28.392Z,3.92
2023-03-04T20:52:02.667Z,3.94
2023-03-04T20:54:30.369Z,3.98
2023-03-04T20:56:56.911Z,4.01
2023-03-04T20:59:23.533Z,4.01
2023-03-04T21:01:51.004Z,4.01
2023-03-04T21:04:20.577Z,4.00
2023-03-04T21:06:51.579Z,3.98
2023-03-04T21:09:20.732Z,3.99
2023-03-04T21:11:48.709Z,3.99
2023-03-04T21:14:25.749Z,3.99
2023-03-04T21:16:58.455Z,4.00
2023-03-04T21:19:30.450Z,4.01
2023-03-04T21:21:58.371Z,4.00
2023-03-04T21:24:28.111Z,3.97
2023-03-04T21:26:55.484Z,3.99
2023-03-04T21:29:24.464Z,3.97
2023-03-04T21:32:24.261Z,3.92
2023-03-04T21:34:52.762Z,3.88
2023-03-04T21:37:27.992Z,3.83
2023-03-04T21:39:55.989Z,3.79
2023-03-04T21:42:30.010Z,3.78
2023-03-04T21:44:56.715Z,3.74
2023-03-04T21:47:23.295Z,3.71
2023-03-04T21:49:50.075Z,3.66
2023-03-04T21:52:21.392Z,3.63
2023-03-04T21:54:48.647Z,3.62
2023-03-04T21:57:17.626Z,3.62
2023-03-04T21:59:44.094Z,3.58
2023-03-04T22:02:21.774Z,3.55
2023-03-04T22:04:48.612Z,3.53
2023-03-04T22:07:27.829Z,3.55
2023-03-04T22:09:55.619Z,3.57
2023-03-04T22:12:22.229Z,3.56
2023-03-04T22:14:48.772Z,3.53
2023-03-04T22:17:15.593Z,3.52
2023-03-04T22:19:42.156Z,3.53
2023-03-04T22:22:10.786Z,3.55
2023-03-04T22:24:40.644Z,3.56
2023-03-04T22:27:07.058Z,3.57
2023-03-04T22:29:39.823Z,3.57
2023-03-04T22:32:06.683Z,3.55
2023-03-04T22:34:33.493Z,3.55
2023-03-04T22:37:02.346Z,3.55
2023-03-04T22:39:31.045Z,3.57
2023-03-04T22:42:00.400Z,3.55
2023-03-04T22:44:26.967Z,3.57
2023-03-04T22:46:56.238Z,3.57
2023-03-04T22:49:22.743Z,3.54
2023-03-04T22:51:52.362Z,3.56
2023-03-04T22:54:34.462Z,3.54
2023-03-04T22:57:07.095Z,3.57
2023-03-04T22:59:35.916Z,3.57
2023-03-04T23:02:02.825Z,3.57
2023-03-04T23:04:29.301Z,3.57
2023-03-04T23:06:58.920Z,3.56
2023-03-04T23:09:25.584Z,3.56
2023-03-04T23:11:54.374Z,3.57
2023-03-04T23:14:20.874Z,3.55
2023-03-04T23:16:47.462Z,3.54
2023-03-04T23:19:20.653Z,3.54
2023-03-04T23:21:47.316Z,3.62
2023-03-04T23:24:14.421Z,3.58
2023-03-04T23:26:42.242Z,3.57
2023-03-04T23:29:14.749Z,3.58
2023-03-04T23:31:43.954Z,3.59
2023-03-04T23:34:13.638Z,3.58
2023-03-04T23:36:43.548Z,3.56
2023-03-04T23:39:12.356Z,3.56
2023-03-04T23:41:39.789Z,3.58
2023-03-04T23:44:14.253Z,3.56
2023-03-04T23:46:41.046Z,3.54
2023-03-04T23:49:09.257Z,3.55
2023-03-04T23:51:36.572Z,3.55
2023-03-04T23:54:03.163Z,3.54
2023-03-04T23:56:31.495Z,3.57
2023-03-04T23:58:59.049Z,3.55
